Time;durP1;ratioP1;P1;durP2;ratioP2;P2;SDS_P1;SDS_P2;PMS_P1;PMS_P2;Temp;Humidity;BMP_temperature;BMP_pressure;BME280_temperature;BME280_humidity;BME280_pressure;Samples;Min_cycle;Max_cycle;Signal;HPM_P1;HPM_P2
2022/06/10 00:00:55;;;;;;;7.28;2.60;;;11.30;97.50;;;;;;5071009;28;20037;-63
2022/06/10 00:03:24;;;;;;;7.45;2.30;;;11.40;97.50;;;;;;5071389;28;20032;-63
2022/06/10 00:05:52;;;;;;;7.30;2.13;;;11.30;97.50;;;;;;5073194;28;20044;-63
2022/06/10 00:08:26;;;;;;;6.70;3.08;;;11.40;97.50;;;;;;5090179;28;20067;-63
2022/06/10 00:10:52;;;;;;;11.63;2.80;;;11.40;97.60;;;;;;5078532;28;20105;-63
2022/06/10 00:13:20;;;;;;;6.25;2.50;;;11.30;97.50;;;;;;5071596;28;20039;-63
2022/06/10 00:15:46;;;;;;;7.47;2.72;;;11.30;97.60;;;;;;5071217;28;20381;-63
2022/06/10 00:18:13;;;;;;;6.75;2.28;;;11.30;97.70;;;;;;5079753;28;20041;-63
2022/06/10 00:20:39;;;;;;;7.45;2.47;;;11.30;97.70;;;;;;5081655;28;20069;-62
2022/06/10 00:23:05;;;;;;;11.13;2.83;;;11.30;97.70;;;;;;5090248;28;20048;-63
2022/06/10 00:25:31;;;;;;;8.40;2.75;;;11.30;97.60;;;;;;5076704;28;20035;-63
2022/06/10 00:27:56;;;;;;;6.07;2.65;;;11.30;97.60;;;;;;5075621;28;20046;-63
2022/06/10 00:30:26;;;;;;;7.38;3.08;;;11.20;97.80;;;;;;5075180;28;20043;-63
2022/06/10 00:32:52;;;;;;;11.75;2.88;;;11.30;98.00;;;;;;5082269;28;20130;-63
2022/06/10 00:35:18;;;;;;;11.23;3.35;;;11.30;97.80;;;;;;5067599;28;20040;-62
2022/06/10 00:37:44;;;;;;;7.47;2.95;;;11.30;98.10;;;;;;5071506;28;20044;-63
2022/06/10 00:40:15;;;;;;;9.88;2.97;;;11.40;97.80;;;;;;5080214;28;20036;-63
2022/06/10 00:42:41;;;;;;;11.60;3.00;;;11.40;97.60;;;;;;5088400;28;20036;-63
2022/06/10 00:45:45;;;;;;;10.90;3.25;;;11.40;97.50;;;;;;5072197;28;20090;-63
2022/06/10 00:48:15;;;;;;;9.77;3.63;;;11.50;98.30;;;;;;5075449;28;20435;-62
2022/06/10 00:50:41;;;;;;;8.35;3.28;;;11.50;97.40;;;;;;5083580;28;20040;-63
2022/06/10 00:53:12;;;;;;;5.60;3.08;;;11.50;97.20;;;;;;5092519;28;20408;-63
2022/06/10 00:55:38;;;;;;;;;;;11.60;97.20;;;;;;5087517;28;20036;-63
2022/06/10 00:58:29;;;;;;;9.25;3.30;;;11.60;98.20;;;;;;5072232;28;20384;-62
2022/06/10 01:00:55;;;;;;;12.43;4.30;;;11.70;97.60;;;;;;5069167;28;20573;-62
2022/06/10 01:03:20;;;;;;;7.95;4.13;;;11.60;96.70;;;;;;5072949;28;20111;-62
2022/06/10 01:05:46;;;;;;;6.00;3.50;;;11.60;96.90;;;;;;5078147;28;20046;-62
2022/06/10 01:08:15;;;;;;;9.50;3.85;;;11.60;96.70;;;;;;5078417;28;20036;-62
2022/06/10 01:11:13;;;;;;;7.80;3.92;;;11.70;96.80;;;;;;5075129;28;20048;-62
2022/06/10 01:13:52;;;;;;;4.97;3.90;;;11.60;97.60;;;;;;5084568;28;20093;-63
2022/06/10 01:16:25;;;;;;;7.25;4.05;;;11.60;97.40;;;;;;5074697;28;20502;-62
2022/06/10 01:19:18;;;;;;;13.38;4.05;;;11.50;97.80;;;;;;5078020;28;20039;-63
2022/06/10 01:22:02;;;;;;;8.13;3.80;;;11.50;97.20;;;;;;5080598;28;20036;-62
2022/06/10 01:25:01;;;;;;;9.02;4.10;;;11.50;97.40;;;;;;5071798;28;21104;-62
2022/06/10 01:28:08;;;;;;;8.55;4.07;;;11.60;98.00;;;;;;5069741;28;20044;-62
2022/06/10 01:31:08;;;;;;;8.98;4.05;;;11.50;97.60;;;;;;4988425;28;20502;-62
2022/06/10 01:33:40;;;;;;;10.75;4.20;;;11.60;97.70;;;;;;4970214;28;20073;-62
2022/06/10 01:36:43;;;;;;;11.80;4.22;;;11.60;96.80;;;;;;5059166;28;20044;-63
2022/06/10 01:39:39;;;;;;;9.63;4.30;;;11.60;97.70;;;;;;5072262;28;20121;-63
2022/06/10 01:42:31;;;;;;;7.78;4.28;;;11.60;97.30;;;;;;5075077;28;20036;-63
2022/06/10 01:45:28;;;;;;;9.10;4.43;;;11.60;97.10;;;;;;5080584;28;20063;-62
2022/06/10 01:48:04;;;;;;;10.02;4.68;;;11.60;97.70;;;;;;5069309;28;20109;-63
2022/06/10 01:50:58;;;;;;;9.20;4.32;;;11.50;96.90;;;;;;5069870;28;20044;-63
2022/06/10 01:53:31;;;;;;;11.38;4.28;;;11.50;97.40;;;;;;5059327;28;20056;-63
2022/06/10 01:56:15;;;;;;;8.35;4.32;;;11.50;97.10;;;;;;5072009;28;20069;-63
2022/06/10 01:58:56;;;;;;;10.05;4.60;;;11.40;97.90;;;;;;5079149;28;20373;-63
2022/06/10 02:01:24;;;;;;;;;;;11.40;98.20;;;;;;5072379;28;20040;-63
2022/06/10 02:04:15;;;;;;;7.45;4.03;;;11.40;98.30;;;;;;5083287;28;19927;-63
2022/06/10 02:07:11;;;;;;;11.25;4.55;;;11.30;97.70;;;;;;5068857;28;20036;-62
2022/06/10 02:09:46;;;;;;;10.73;4.57;;;11.30;98.20;;;;;;5075157;28;20044;-63
2022/06/10 02:12:23;;;;;;;9.02;4.60;;;11.20;97.50;;;;;;5074069;28;20083;-62
2022/06/10 02:14:53;;;;;;;8.40;4.38;;;11.20;97.50;;;;;;5082037;28;20051;-62
2022/06/10 02:17:20;;;;;;;;;;;11.10;97.60;;;;;;5074852;28;20502;-63
2022/06/10 02:19:51;;;;;;;13.07;4.80;;;11.10;98.60;;;;;;5080609;28;20603;-63
2022/06/10 02:22:35;;;;;;;10.50;4.45;;;11.00;97.90;;;;;;5075124;28;20066;-63
2022/06/10 02:25:14;;;;;;;9.82;4.47;;;11.00;98.70;;;;;;5070345;28;20087;-63
2022/06/10 02:27:53;;;;;;;10.95;4.43;;;10.90;99.50;;;;;;5092221;28;20040;-63
2022/06/10 02:30:32;;;;;;;17.20;4.63;;;11.00;98.80;;;;;;5075158;28;20033;-62
2022/06/10 02:32:58;;;;;;;10.27;4.78;;;11.00;99.30;;;;;;5083184;28;20048;-63
2022/06/10 02:35:28;;;;;;;8.32;4.05;;;10.90;98.20;;;;;;5079070;28;20350;-63
2022/06/10 02:38:06;;;;;;;9.57;4.63;;;10.90;98.60;;;;;;5077962;28;20524;-63
2022/06/10 02:40:57;;;;;;;10.45;4.40;;;10.90;98.70;;;;;;5089189;28;20047;-63
2022/06/10 02:43:33;;;;;;;11.95;5.65;;;10.90;99.90;;;;;;5084329;28;20545;-63
2022/06/10 02:46:21;;;;;;;11.90;4.68;;;10.80;98.90;;;;;;5087649;28;20400;-63
2022/06/10 02:49:07;;;;;;;11.38;4.65;;;10.90;99.90;;;;;;5073723;28;20476;-63
2022/06/10 02:51:34;;;;;;;12.05;4.78;;;10.80;99.20;;;;;;5079631;28;20039;-62
2022/06/10 02:54:01;;;;;;;9.52;4.68;;;10.80;99.10;;;;;;5075685;28;20041;-63
2022/06/10 02:56:28;;;;;;;16.38;5.18;;;10.70;99.00;;;;;;5075559;28;20049;-63
2022/06/10 03:01:47;;;;;;;13.15;5.40;;;10.70;99.20;;;;;;5079467;28;20051;-63
2022/06/10 03:05:01;;;;;;;9.15;4.57;;;10.60;99.40;;;;;;5081878;28;20039;-63
2022/06/10 03:07:44;;;;;;;10.13;4.75;;;10.50;99.70;;;;;;5069131;28;20052;-63
2022/06/10 03:10:52;;;;;;;8.60;4.80;;;10.40;99.70;;;;;;5077464;28;20115;-63
2022/06/10 03:13:37;;;;;;;13.30;4.95;;;10.40;99.90;;;;;;5072336;28;20070;-63
2022/06/10 03:16:09;;;;;;;11.45;4.70;;;10.30;99.90;;;;;;5080725;28;20063;-62
2022/06/10 03:19:01;;;;;;;11.27;4.03;;;10.30;99.90;;;;;;5080504;28;20569;-63
2022/06/10 03:21:54;;;;;;;10.00;4.15;;;10.30;99.90;;;;;;5084057;28;20040;-63
2022/06/10 03:24:39;;;;;;;10.27;4.57;;;10.30;99.90;;;;;;5073074;28;20040;-63
2022/06/10 03:27:34;;;;;;;6.40;4.18;;;10.20;99.90;;;;;;5089261;28;20048;-63
2022/06/10 03:30:09;;;;;;;12.23;4.43;;;10.20;99.90;;;;;;5034378;28;20082;-62
2022/06/10 03:32:50;;;;;;;9.48;5.03;;;10.30;99.90;;;;;;5070895;28;20071;-61
2022/06/10 03:35:37;;;;;;;16.98;5.97;;;10.30;99.90;;;;;;5083042;28;20660;-63
2022/06/10 03:38:07;;;;;;;9.07;5.03;;;10.30;99.90;;;;;;5081159;28;20439;-63
2022/06/10 03:40:34;;;;;;;12.43;5.38;;;10.30;99.90;;;;;;5077240;28;20040;-63
2022/06/10 03:43:05;;;;;;;13.60;5.13;;;10.30;99.90;;;;;;5070625;28;20052;-63
2022/06/10 03:45:42;;;;;;;13.52;5.55;;;10.30;99.90;;;;;;5072838;28;20530;-63
2022/06/10 03:48:13;;;;;;;9.98;4.80;;;10.30;99.90;;;;;;5072575;28;20040;-63
2022/06/10 03:50:40;;;;;;;9.55;4.32;;;10.30;99.90;;;;;;5071968;28;20506;-63
2022/06/10 03:53:06;;;;;;;9.63;4.45;;;10.20;99.90;;;;;;5074470;28;20051;-63
2022/06/10 03:55:32;;;;;;;8.98;4.07;;;10.20;99.90;;;;;;5071565;28;20041;-63
2022/06/10 03:57:58;;;;;;;8.68;4.00;;;10.20;99.90;;;;;;5076420;28;20032;-63
2022/06/10 04:00:28;;;;;;;8.30;4.40;;;10.30;99.90;;;;;;5074747;28;20140;-63
2022/06/10 04:02:53;;;;;;;8.85;4.13;;;10.30;99.90;;;;;;5075275;28;20040;-63
2022/06/10 04:05:19;;;;;;;12.35;4.75;;;10.30;99.90;;;;;;5073028;28;20859;-63
2022/06/10 04:07:45;;;;;;;9.35;4.68;;;10.40;99.90;;;;;;5073670;28;20511;-63
2022/06/10 04:10:20;;;;;;;10.73;4.85;;;10.40;99.90;;;;;;5078886;28;20062;-63
2022/06/10 04:12:45;;;;;;;11.45;4.57;;;10.60;99.90;;;;;;5071210;28;20447;-63
2022/06/10 04:15:14;;;;;;;13.50;5.18;;;10.70;99.90;;;;;;5075516;28;20044;-63
2022/06/10 04:17:42;;;;;;;11.52;4.90;;;10.70;99.90;;;;;;5075932;28;20047;-63
2022/06/10 04:20:10;;;;;;;10.32;4.85;;;10.80;99.90;;;;;;5090093;28;20079;-63
2022/06/10 04:22:37;;;;;;;10.52;4.93;;;10.90;99.90;;;;;;5087490;28;20473;-63
2022/06/10 04:25:03;;;;;;;8.93;4.88;;;11.00;99.90;;;;;;5078385;28;20048;-62
2022/06/10 04:27:28;;;;;;;12.60;4.47;;;11.10;99.90;;;;;;5088486;28;20404;-63
2022/06/10 04:29:54;;;;;;;12.73;4.90;;;11.20;99.90;;;;;;5076672;28;20044;-63
2022/06/10 04:32:20;;;;;;;10.55;4.57;;;11.30;99.90;;;;;;5072369;28;20035;-63
2022/06/10 04:34:45;;;;;;;9.18;4.10;;;11.40;99.90;;;;;;5081643;28;20051;-63
2022/06/10 04:37:11;;;;;;;8.35;4.70;;;11.50;99.90;;;;;;5078281;28;20048;-63
2022/06/10 04:39:37;;;;;;;11.57;4.60;;;11.60;99.90;;;;;;5070672;28;20740;-63
2022/06/10 04:42:03;;;;;;;12.70;5.20;;;11.70;99.70;;;;;;5077633;28;20040;-63
2022/06/10 04:44:28;;;;;;;11.70;4.78;;;11.80;99.60;;;;;;5072090;28;20102;-63
2022/06/10 04:46:54;;;;;;;10.65;4.43;;;11.90;99.60;;;;;;5077059;28;20059;-62
2022/06/10 04:49:20;;;;;;;12.75;4.90;;;12.00;99.50;;;;;;5081894;28;20050;-62
2022/06/10 04:51:45;;;;;;;11.65;5.07;;;12.10;99.30;;;;;;5074041;28;20123;-63
2022/06/10 04:54:11;;;;;;;12.48;4.38;;;12.20;98.90;;;;;;5076599;28;20460;-63
2022/06/10 04:56:38;;;;;;;10.18;4.80;;;12.30;98.70;;;;;;5075761;28;20036;-63
2022/06/10 04:59:04;;;;;;;11.10;4.55;;;12.40;98.60;;;;;;5076006;28;20119;-62
2022/06/10 05:01:29;;;;;;;12.35;4.93;;;12.60;98.40;;;;;;5072386;28;20162;-63
2022/06/10 05:03:55;;;;;;;12.93;5.10;;;12.60;98.50;;;;;;5072412;28;20037;-63
2022/06/10 05:06:21;;;;;;;12.52;4.70;;;12.80;98.70;;;;;;5073247;28;20032;-62
2022/06/10 05:08:47;;;;;;;11.95;4.55;;;12.90;99.00;;;;;;5082659;28;20050;-62
2022/06/10 05:11:14;;;;;;;9.75;4.88;;;13.00;98.90;;;;;;5073619;28;20033;-62
2022/06/10 05:13:42;;;;;;;10.00;4.63;;;13.20;98.50;;;;;;5074902;28;20064;-62
2022/06/10 05:16:08;;;;;;;11.55;4.82;;;13.30;98.50;;;;;;5072320;28;20759;-62
2022/06/10 05:18:33;;;;;;;10.48;4.90;;;13.60;98.50;;;;;;5075681;28;20059;-62
2022/06/10 05:20:59;;;;;;;12.55;5.10;;;13.60;97.00;;;;;;5070950;28;20033;-62
2022/06/10 05:23:26;;;;;;;12.57;4.97;;;13.80;97.70;;;;;;5071353;28;20082;-63
2022/06/10 05:25:52;;;;;;;10.10;4.80;;;14.10;97.60;;;;;;5078579;28;20036;-63
2022/06/10 05:28:19;;;;;;;11.32;5.28;;;14.10;96.70;;;;;;5070306;28;20037;-63
2022/06/10 05:30:44;;;;;;;15.60;5.35;;;14.30;97.00;;;;;;5078875;28;20105;-62
2022/06/10 05:33:11;;;;;;;15.18;5.25;;;14.30;96.70;;;;;;5073551;28;20988;-62
2022/06/10 05:35:38;;;;;;;10.52;4.82;;;14.20;96.30;;;;;;5080031;28;20383;-62
2022/06/10 05:38:05;;;;;;;9.63;5.05;;;14.20;95.80;;;;;;5086053;28;20035;-63
2022/06/10 05:40:32;;;;;;;8.18;5.30;;;14.20;95.80;;;;;;5086863;28;20071;-63
2022/06/10 05:42:58;;;;;;;10.93;5.28;;;14.20;95.40;;;;;;5081487;28;20054;-61
2022/06/10 05:45:25;;;;;;;12.82;5.28;;;14.40;95.30;;;;;;5079587;28;20045;-62
2022/06/10 05:47:55;;;;;;;11.13;4.97;;;14.50;94.80;;;;;;5085077;28;20389;-62
2022/06/10 05:50:24;;;;;;;8.38;4.75;;;14.80;94.80;;;;;;5075252;28;20040;-62
2022/06/10 05:52:50;;;;;;;13.65;5.20;;;15.20;94.90;;;;;;5074100;28;20473;-62
2022/06/10 05:55:17;;;;;;;11.85;4.78;;;15.30;94.30;;;;;;5079466;28;20048;-62
2022/06/10 05:57:42;;;;;;;14.13;4.88;;;15.50;93.60;;;;;;5074841;28;20032;-63
2022/06/10 06:00:16;;;;;;;12.27;4.57;;;15.60;93.40;;;;;;5075454;28;20617;-62
2022/06/10 06:02:42;;;;;;;9.02;4.32;;;15.80;92.60;;;;;;5080051;28;20040;-62
2022/06/10 06:05:10;;;;;;;11.10;4.43;;;15.90;92.90;;;;;;5071993;28;20060;-62
2022/06/10 06:07:37;;;;;;;10.25;4.00;;;15.90;92.70;;;;;;5076432;28;20044;-62
2022/06/10 06:10:04;;;;;;;7.68;4.22;;;15.90;91.80;;;;;;5074768;28;20040;-62
2022/06/10 06:12:29;;;;;;;10.40;3.72;;;16.00;92.40;;;;;;5077765;28;20046;-62
2022/06/10 06:14:55;;;;;;;11.90;4.28;;;15.90;92.40;;;;;;5077282;28;20032;-62
2022/06/10 06:17:21;;;;;;;11.18;4.28;;;15.90;92.40;;;;;;5070652;28;20043;-62
2022/06/10 06:19:47;;;;;;;10.80;4.00;;;15.80;92.30;;;;;;5077630;28;20376;-62
2022/06/10 06:22:13;;;;;;;12.38;4.30;;;15.80;92.10;;;;;;5083437;28;20043;-62
2022/06/10 06:24:39;;;;;;;11.32;4.60;;;15.70;92.40;;;;;;5078931;28;20041;-62
2022/06/10 06:27:06;;;;;;;8.27;4.03;;;15.70;92.60;;;;;;5076861;28;20036;-63
2022/06/10 06:29:32;;;;;;;12.63;4.95;;;15.70;92.60;;;;;;5075640;28;20123;-62
2022/06/10 06:31:58;;;;;;;9.25;4.03;;;15.70;92.50;;;;;;5081343;28;20421;-62
2022/06/10 06:34:25;;;;;;;13.43;4.47;;;15.80;92.70;;;;;;5073233;28;20049;-62
2022/06/10 06:36:53;;;;;;;10.35;4.18;;;15.80;92.70;;;;;;5072756;28;20033;-62
2022/06/10 06:39:20;;;;;;;8.18;3.80;;;15.90;92.70;;;;;;5087591;28;20036;-62
2022/06/10 06:41:46;;;;;;;9.77;4.03;;;15.90;92.70;;;;;;5077373;28;20032;-63
2022/06/10 06:44:12;;;;;;;9.02;3.97;;;15.90;93.00;;;;;;5075494;28;20515;-62
2022/06/10 06:46:40;;;;;;;10.48;3.88;;;16.00;92.70;;;;;;5082599;28;20044;-63
2022/06/10 06:49:09;;;;;;;9.05;4.30;;;16.10;92.70;;;;;;5077122;28;20028;-62
2022/06/10 06:51:36;;;;;;;10.93;4.00;;;16.20;92.70;;;;;;5079886;28;20047;-63
2022/06/10 06:54:02;;;;;;;12.60;4.45;;;16.10;92.70;;;;;;5070971;28;20055;-63
2022/06/10 06:56:28;;;;;;;8.95;4.25;;;16.10;92.90;;;;;;5073098;28;20048;-63
2022/06/10 06:58:55;;;;;;;11.07;4.47;;;16.10;92.90;;;;;;5073828;28;20464;-63
2022/06/10 07:01:21;;;;;;;14.27;4.25;;;16.20;93.00;;;;;;5079690;28;20037;-63
2022/06/10 07:03:46;;;;;;;10.15;4.63;;;16.40;93.00;;;;;;5092227;28;20066;-63
2022/06/10 07:06:12;;;;;;;12.77;4.75;;;16.60;92.70;;;;;;5091992;28;20047;-63
2022/06/10 07:08:38;;;;;;;14.82;4.43;;;16.70;92.70;;;;;;5084468;28;20040;-63
2022/06/10 07:11:06;;;;;;;13.20;4.25;;;16.80;92.60;;;;;;5088346;28;20069;-63
2022/06/10 07:13:32;;;;;;;9.65;4.22;;;16.80;92.50;;;;;;5081480;28;20029;-63
2022/06/10 07:16:00;;;;;;;10.52;4.30;;;16.90;92.40;;;;;;5074901;28;20778;-63
2022/06/10 07:18:27;;;;;;;12.25;5.38;;;16.90;92.40;;;;;;5080509;28;20040;-62
2022/06/10 07:20:52;;;;;;;15.25;5.20;;;16.70;92.90;;;;;;5088918;28;20082;-63
2022/06/10 07:23:19;;;;;;;10.07;4.95;;;16.60;93.20;;;;;;5083012;28;20032;-63
2022/06/10 07:25:46;;;;;;;12.35;5.22;;;16.60;93.60;;;;;;5093419;28;20070;-62
2022/06/10 07:28:11;;;;;;;14.18;5.53;;;16.40;94.40;;;;;;5082955;28;20036;-62
2022/06/10 07:30:38;;;;;;;13.45;5.32;;;16.30;95.40;;;;;;5094322;28;20039;-63
2022/06/10 07:33:04;;;;;;;14.23;5.90;;;16.30;96.00;;;;;;5080056;28;20083;-63
2022/06/10 07:35:29;;;;;;;12.00;5.43;;;16.50;95.90;;;;;;5090125;28;20727;-63
2022/06/10 07:37:57;;;;;;;13.25;6.28;;;16.40;96.30;;;;;;5078444;28;20032;-62
2022/06/10 07:43:14;;;;;;;13.27;6.22;;;16.60;97.10;;;;;;5078368;28;20052;-64
2022/06/10 07:45:41;;;;;;;14.40;6.50;;;16.60;96.60;;;;;;5074234;28;20057;-63
2022/06/10 07:48:07;;;;;;;11.65;6.65;;;16.70;96.60;;;;;;5078644;28;20038;-63
2022/06/10 07:50:33;;;;;;;14.02;6.55;;;16.70;96.60;;;;;;5084472;28;20040;-63
2022/06/10 07:52:58;;;;;;;14.82;6.68;;;16.90;96.40;;;;;;5073789;28;20060;-63
2022/06/10 07:55:24;;;;;;;11.20;6.03;;;17.10;96.10;;;;;;5082804;28;20074;-63
2022/06/10 07:57:51;;;;;;;14.90;6.18;;;17.20;95.90;;;;;;5089865;28;20040;-63
2022/06/10 08:00:17;;;;;;;17.08;5.65;;;17.30;95.60;;;;;;5086479;28;20040;-63
2022/06/10 08:02:43;;;;;;;9.93;5.55;;;17.40;95.30;;;;;;5076194;28;20032;-63
2022/06/10 08:05:13;;;;;;;12.40;5.78;;;17.30;95.00;;;;;;5071692;28;20045;-63
2022/06/10 08:07:39;;;;;;;13.55;5.15;;;17.60;94.80;;;;;;5072861;28;20032;-62
2022/06/10 08:10:16;;;;;;;10.50;5.65;;;17.60;94.90;;;;;;5071627;28;20530;-63
2022/06/10 08:12:42;;;;;;;10.88;6.03;;;17.70;94.60;;;;;;5076652;28;20039;-64
2022/06/10 08:15:07;;;;;;;9.25;5.75;;;17.80;94.40;;;;;;5081927;28;20036;-63
2022/06/10 08:17:33;;;;;;;11.05;6.07;;;18.00;94.20;;;;;;5076320;28;20032;-63
2022/06/10 08:20:01;;;;;;;9.18;5.15;;;17.80;94.50;;;;;;5088172;28;20032;-63
2022/06/10 08:22:34;;;;;;;11.00;6.05;;;18.00;94.20;;;;;;5059866;28;20126;-64
2022/06/10 08:25:00;;;;;;;13.68;5.07;;;18.00;94.20;;;;;;5086605;28;20039;-63
2022/06/10 08:27:27;;;;;;;9.50;5.55;;;18.10;93.90;;;;;;5088086;28;20043;-64
2022/06/10 08:29:55;;;;;;;11.93;5.35;;;17.90;94.00;;;;;;5070100;28;20086;-62
2022/06/10 08:32:21;;;;;;;11.02;5.57;;;17.80;94.20;;;;;;5069887;28;20044;-63
2022/06/10 08:34:47;;;;;;;11.00;5.25;;;17.70;94.30;;;;;;5075984;28;20345;-63
2022/06/10 08:37:13;;;;;;;11.25;5.05;;;17.80;93.90;;;;;;5084554;28;20036;-63
2022/06/10 08:39:38;;;;;;;11.60;5.82;;;17.70;94.20;;;;;;5074548;28;20032;-63
2022/06/10 08:42:30;;;;;;;12.48;5.70;;;17.50;94.50;;;;;;5091367;28;20035;-63
2022/06/10 08:45:12;;;;;;;11.20;5.80;;;17.60;94.40;;;;;;5078393;28;20056;-62
2022/06/10 08:48:09;;;;;;;13.10;5.80;;;17.60;94.40;;;;;;5070244;28;20052;-62
2022/06/10 08:50:55;;;;;;;9.95;5.38;;;17.80;94.50;;;;;;5071237;28;20432;-63
2022/06/10 08:53:49;;;;;;;10.10;5.20;;;18.10;93.90;;;;;;5083835;28;20089;-63
2022/06/10 08:56:30;;;;;;;11.43;5.22;;;18.10;93.70;;;;;;5072231;28;20044;-63
2022/06/10 08:59:08;;;;;;;10.60;5.30;;;18.10;92.90;;;;;;5086982;28;20028;-63
2022/06/10 09:02:02;;;;;;;15.27;6.30;;;18.10;93.00;;;;;;5083870;28;20048;-62
2022/06/10 09:04:37;;;;;;;9.13;5.05;;;18.00;93.50;;;;;;5080020;28;20048;-62
2022/06/10 09:07:11;;;;;;;11.65;5.65;;;18.20;93.30;;;;;;5082363;28;20039;-63
2022/06/10 09:09:41;;;;;;;10.20;4.60;;;18.40;92.60;;;;;;5077116;28;20469;-63
2022/06/10 09:12:19;;;;;;;13.25;6.13;;;18.70;92.70;;;;;;5082431;28;20100;-63
2022/06/10 09:14:45;;;;;;;11.27;5.20;;;18.80;92.10;;;;;;5086464;28;20043;-63
2022/06/10 09:17:18;;;;;;;11.00;5.38;;;19.00;92.10;;;;;;5071100;28;20032;-64
2022/06/10 09:20:11;;;;;;;11.23;4.72;;;19.10;92.00;;;;;;5070989;28;20076;-63
2022/06/10 09:22:47;;;;;;;10.48;4.88;;;19.10;90.00;;;;;;5074137;28;20050;-63
2022/06/10 09:25:32;;;;;;;12.65;5.32;;;19.00;90.20;;;;;;5078594;28;20048;-62
2022/06/10 09:28:00;;;;;;;14.20;4.82;;;18.90;90.90;;;;;;5072870;28;20055;-63
2022/06/10 09:30:50;;;;;;;11.27;4.78;;;18.60;91.60;;;;;;5078228;28;20037;-63
2022/06/10 09:33:32;;;;;;;9.68;4.57;;;18.70;91.30;;;;;;5079217;28;20400;-63
2022/06/10 09:36:15;;;;;;;7.72;4.55;;;18.70;91.00;;;;;;5085811;28;20132;-63
2022/06/10 09:39:04;;;;;;;9.25;4.78;;;18.50;91.10;;;;;;5076107;28;20044;-63
2022/06/10 09:42:16;;;;;;;11.13;4.70;;;18.60;91.20;;;;;;5081376;28;20381;-63
2022/06/10 09:45:07;;;;;;;10.45;4.45;;;18.40;90.60;;;;;;5072008;28;20044;-63
2022/06/10 09:47:45;;;;;;;9.77;4.45;;;18.50;91.40;;;;;;5078767;28;20040;-63
2022/06/10 09:50:25;;;;;;;9.00;4.57;;;18.50;91.10;;;;;;5072366;28;20045;-62
2022/06/10 09:52:58;;;;;;;10.85;4.88;;;18.40;91.20;;;;;;5072205;28;20115;-63
2022/06/10 09:55:48;;;;;;;8.43;4.45;;;18.30;91.40;;;;;;5082063;28;20052;-63
2022/06/10 09:58:35;;;;;;;9.43;4.50;;;18.00;92.00;;;;;;5078861;28;20157;-63
2022/06/10 10:01:22;;;;;;;11.15;4.32;;;18.00;92.20;;;;;;5083738;28;20040;-63
2022/06/10 10:04:07;;;;;;;11.60;4.18;;;18.10;92.20;;;;;;5071368;28;20063;-63
2022/06/10 10:06:44;;;;;;;8.65;4.40;;;18.10;92.60;;;;;;5055152;28;20139;-63
2022/06/10 10:09:51;;;;;;;8.02;4.22;;;18.30;92.40;;;;;;5071839;28;20048;-63
2022/06/10 10:12:32;;;;;;;9.65;4.13;;;18.30;92.30;;;;;;5077291;28;20056;-62
2022/06/10 10:15:19;;;;;;;13.77;4.60;;;18.30;92.40;;;;;;5075652;28;20611;-63
2022/06/10 10:18:08;;;;;;;9.70;4.03;;;18.40;92.20;;;;;;5073313;28;20052;-63
2022/06/10 10:21:07;;;;;;;10.20;4.30;;;18.50;92.00;;;;;;5070899;28;20040;-62
2022/06/10 10:23:44;;;;;;;12.85;4.75;;;18.60;91.40;;;;;;5068389;28;20044;-63
2022/06/10 10:26:16;;;;;;;11.68;4.90;;;18.90;91.60;;;;;;5063833;28;20480;-63
2022/06/10 10:28:42;;;;;;;7.32;4.63;;;19.50;91.00;;;;;;5070902;28;20044;-62
2022/06/10 10:31:26;;;;;;;6.93;3.60;;;19.80;89.30;;;;;;5075828;28;20040;-63
2022/06/10 10:33:52;;;;;;;9.77;4.00;;;20.10;89.50;;;;;;5088613;28;20040;-63
2022/06/10 10:36:23;;;;;;;7.80;4.10;;;20.00;88.70;;;;;;5081310;28;19954;-63
2022/06/10 10:38:51;;;;;;;9.55;4.40;;;19.90;88.90;;;;;;5090436;28;20028;-63
2022/06/10 10:41:32;;;;;;;9.35;4.32;;;20.00;87.90;;;;;;5080029;28;20044;-63
2022/06/10 10:44:05;;;;;;;13.40;5.15;;;19.80;87.00;;;;;;5077680;28;20060;-63
2022/06/10 10:47:00;;;;;;;9.02;3.55;;;20.00;86.60;;;;;;5089857;28;20039;-63
2022/06/10 10:49:36;;;;;;;9.98;3.78;;;20.20;85.00;;;;;;5077171;28;20044;-63
2022/06/10 10:52:25;;;;;;;8.45;3.92;;;20.00;86.70;;;;;;5073773;28;20051;-63
2022/06/10 10:54:59;;;;;;;8.80;4.78;;;19.90;86.00;;;;;;5078794;28;20028;-63
2022/06/10 10:57:31;;;;;;;13.05;3.88;;;19.80;86.80;;;;;;5074813;28;20044;-63
2022/06/10 11:00:09;;;;;;;8.80;3.42;;;19.90;87.30;;;;;;5072928;28;20039;-63
2022/06/10 11:02:51;;;;;;;9.65;3.65;;;20.00;87.90;;;;;;5078518;28;20032;-63
2022/06/10 11:05:19;;;;;;;10.07;3.88;;;20.60;86.70;;;;;;5085361;28;20407;-63
2022/06/10 11:54:53;;;;;;;9.20;3.45;;;21.10;78.70;;;;;;5172624;27;20976;-62
2022/06/10 12:00:30;;;;;;;6.93;3.15;;;22.90;73.80;;;;;;5168180;27;20046;-63
2022/06/10 12:03:34;;;;;;;13.73;3.83;;;23.00;74.30;;;;;;5169035;27;20544;-63
2022/06/10 12:06:18;;;;;;;7.13;3.15;;;22.90;74.80;;;;;;5144354;27;20043;-64
2022/06/10 12:08:49;;;;;;;7.70;3.63;;;22.60;75.00;;;;;;5162816;27;20046;-63
2022/06/10 12:11:33;;;;;;;7.25;3.72;;;22.20;75.80;;;;;;5171762;27;20034;-63
2022/06/10 12:14:20;;;;;;;9.20;3.22;;;21.70;75.80;;;;;;5168322;27;20070;-62
2022/06/10 12:16:51;;;;;;;10.20;4.40;;;21.50;76.90;;;;;;5171120;27;20358;-62
2022/06/10 12:19:27;;;;;;;7.15;3.65;;;21.30;77.70;;;;;;5170470;27;20031;-63
2022/06/10 12:21:52;;;;;;;9.15;3.25;;;21.00;78.40;;;;;;5170190;27;20093;-63
2022/06/10 12:24:20;;;;;;;10.10;3.88;;;20.90;79.70;;;;;;5149590;27;20069;-63
2022/06/10 12:26:51;;;;;;;10.48;3.53;;;20.80;80.80;;;;;;5168530;27;20045;-63
2022/06/10 12:29:49;;;;;;;7.68;3.90;;;20.80;80.80;;;;;;5163094;27;20079;-63
2022/06/10 12:32:34;;;;;;;8.68;3.00;;;21.10;81.30;;;;;;5160487;27;20043;-62
2022/06/10 12:35:34;;;;;;;7.45;2.80;;;21.30;80.10;;;;;;5160245;27;20049;-63
2022/06/10 12:38:10;;;;;;;8.20;3.33;;;21.30;80.40;;;;;;5166886;27;20034;-63
2022/06/10 12:40:42;;;;;;;10.68;3.45;;;21.10;80.90;;;;;;5167654;27;20038;-62
2022/06/10 12:43:24;;;;;;;7.63;3.20;;;20.90;80.10;;;;;;5150953;27;20034;-63
2022/06/10 12:45:58;;;;;;;12.43;3.17;;;20.80;81.40;;;;;;5164092;27;20053;-62
2022/06/10 12:48:33;;;;;;;9.15;3.20;;;21.00;81.90;;;;;;5167655;27;20116;-63
2022/06/10 12:50:58;;;;;;;5.90;2.90;;;21.60;80.40;;;;;;5171479;27;20039;-62
2022/06/10 12:53:49;;;;;;;10.70;3.15;;;22.00;79.50;;;;;;5169832;27;20103;-63
2022/06/10 12:56:27;;;;;;;11.55;3.75;;;22.50;76.00;;;;;;5156367;27;20035;-63
2022/06/10 12:59:06;;;;;;;8.57;3.15;;;22.70;75.20;;;;;;5149616;27;20038;-63
2022/06/10 13:01:32;;;;;;;6.32;2.80;;;22.80;73.20;;;;;;5151507;27;20038;-63
2022/06/10 13:04:03;;;;;;;11.20;2.85;;;22.90;74.40;;;;;;5153655;27;20031;-62
2022/06/10 13:06:31;;;;;;;6.40;2.70;;;23.00;73.90;;;;;;5152181;27;20035;-63
2022/06/10 13:09:12;;;;;;;10.35;3.28;;;23.00;73.90;;;;;;5154768;27;20095;-64
2022/06/10 13:11:38;;;;;;;7.38;2.83;;;22.80;70.50;;;;;;5156004;27;20030;-63
2022/06/10 13:14:21;;;;;;;8.95;2.78;;;22.60;72.20;;;;;;5149502;27;20110;-63
2022/06/10 13:16:59;;;;;;;8.77;2.88;;;22.60;72.10;;;;;;5146081;27;20073;-63
2022/06/10 13:19:40;;;;;;;7.85;2.85;;;22.60;70.90;;;;;;5136336;27;20039;-62
2022/06/10 13:22:21;;;;;;;6.20;3.00;;;22.90;72.40;;;;;;5149003;27;20175;-62
2022/06/10 13:24:53;;;;;;;8.63;2.53;;;23.20;70.90;;;;;;5150031;27;20041;-63
2022/06/10 13:27:39;;;;;;;7.35;2.88;;;23.10;70.00;;;;;;5148055;27;20038;-62
2022/06/10 13:30:26;;;;;;;8.45;2.78;;;23.10;69.70;;;;;;5147420;27;20035;-62
2022/06/10 13:33:02;;;;;;;10.45;3.00;;;22.90;69.60;;;;;;5146658;27;20102;-63
2022/06/10 13:35:32;;;;;;;9.43;2.65;;;22.50;70.70;;;;;;5152186;27;20046;-63
2022/06/10 13:38:06;;;;;;;8.60;2.72;;;22.30;71.70;;;;;;5149761;27;20045;-63
2022/06/10 13:40:32;;;;;;;7.43;2.45;;;21.90;71.40;;;;;;5153399;27;20059;-62
2022/06/10 13:43:02;;;;;;;7.15;3.00;;;21.60;73.30;;;;;;5154456;27;20039;-62
2022/06/10 13:45:37;;;;;;;15.13;6.07;;;21.40;73.80;;;;;;5147562;27;20039;-63
2022/06/10 13:48:26;;;;;;;6.38;3.60;;;21.30;75.00;;;;;;5152182;27;20039;-63
2022/06/10 13:51:23;;;;;;;7.35;3.15;;;21.40;73.70;;;;;;5146289;27;20035;-62
2022/06/10 13:54:09;;;;;;;8.02;4.22;;;22.80;71.70;;;;;;5154257;27;20055;-63
2022/06/10 13:56:42;;;;;;;10.23;4.07;;;23.40;69.90;;;;;;5151671;27;20481;-63
2022/06/10 13:59:29;;;;;;;7.88;3.67;;;24.00;68.50;;;;;;5149567;27;20133;-63
2022/06/10 14:02:00;;;;;;;7.65;2.92;;;24.20;67.70;;;;;;5142558;27;20042;-63
2022/06/10 14:04:29;;;;;;;7.22;3.30;;;23.70;66.70;;;;;;5150819;27;20042;-63
2022/06/10 14:07:00;;;;;;;8.18;2.85;;;23.40;66.10;;;;;;5152621;27;20820;-64
2022/06/10 14:09:33;;;;;;;4.30;2.92;;;23.10;66.70;;;;;;5132800;27;20223;-63
2022/06/10 14:12:11;;;;;;;6.32;3.15;;;23.00;68.80;;;;;;5139628;27;20031;-63
2022/06/10 14:14:39;;;;;;;6.50;2.47;;;23.20;68.10;;;;;;5149863;27;20489;-64